Time;durP1;ratioP1;P1;durP2;ratioP2;P2;SDS_P1;SDS_P2;PMS_P1;PMS_P2;Temp;Humidity;BMP_temperature;BMP_pressure;BME280_temperature;BME280_humidity;BME280_pressure;Samples;Min_cycle;Max_cycle;Signal;HPM_P1;HPM_P2
2022/06/14 00:01:08;;;;;;;4.90;2.92;;;19.10;56.80;;;18.24;71.45;101098.25;5028487;28;20043;-77
2022/06/14 00:03:42;;;;;;;5.05;3.10;;;18.10;56.40;;;18.17;72.36;101096.78;5028786;28;20148;-77
2022/06/14 00:06:20;;;;;;;6.75;2.88;;;18.10;57.30;;;18.21;71.16;101101.06;5027404;28;20045;-77
2022/06/14 00:08:47;;;;;;;7.70;3.72;;;18.00;57.00;;;17.93;78.23;101113.75;5026162;28;20046;-76
2022/06/14 00:11:25;;;;;;;4.70;3.05;;;18.00;58.30;;;17.94;74.77;101109.28;5028278;28;20045;-77
2022/06/14 00:13:54;;;;;;;5.95;2.97;;;17.90;58.10;;;17.88;75.33;101114.91;5026638;28;20048;-77
2022/06/14 00:16:22;;;;;;;9.43;2.65;;;17.80;58.60;;;17.84;75.18;101109.69;5011290;28;20127;-77
2022/06/14 00:18:50;;;;;;;5.88;2.75;;;17.80;59.00;;;17.76;78.52;101101.16;5026607;28;20059;-76
2022/06/14 00:21:18;;;;;;;8.07;3.25;;;17.70;60.00;;;17.59;79.31;101104.53;5027529;28;20045;-77
2022/06/14 00:23:45;;;;;;;7.50;3.00;;;17.70;60.70;;;17.55;80.12;101106.44;5026592;28;20049;-77
2022/06/14 00:26:13;;;;;;;5.78;2.92;;;17.60;61.40;;;17.41;84.11;101104.38;5027150;28;20049;-76
2022/06/14 00:28:43;;;;;;;6.40;3.30;;;17.50;63.00;;;17.35;84.18;101098.44;5028299;28;20060;-76
2022/06/14 00:31:16;;;;;;;;;;;17.60;64.20;;;17.31;84.19;101096.84;5015453;28;20126;-77
2022/06/14 00:33:44;;;;;;;8.20;3.00;;;17.30;65.20;;;17.34;80.59;101102.91;5007282;28;20353;-78
2022/06/14 00:36:22;;;;;;;6.47;2.67;;;17.20;65.50;;;17.27;84.19;101098.75;5007971;28;20044;-77
2022/06/14 00:38:50;;;;;;;6.10;3.30;;;17.20;67.10;;;17.19;82.80;101098.22;5006898;28;20045;-77
2022/06/14 00:41:47;;;;;;;4.43;2.80;;;17.20;67.70;;;17.11;84.52;101098.50;5011504;28;20384;-77
2022/06/14 00:44:23;;;;;;;8.32;3.42;;;17.10;68.80;;;17.01;87.45;101101.53;5010943;28;20052;-76
2022/06/14 00:46:59;;;;;;;7.82;3.33;;;17.00;70.90;;;17.09;86.25;101100.34;4995147;28;20156;-76
2022/06/14 00:49:59;;;;;;;7.57;3.08;;;17.00;71.60;;;17.15;86.08;101098.31;5027006;28;20038;-77
2022/06/14 00:52:39;;;;;;;5.05;2.90;;;17.00;72.80;;;17.08;88.12;101087.97;5041727;28;20050;-76
2022/06/14 00:55:31;;;;;;;3.92;2.95;;;16.90;74.10;;;16.85;92.31;101093.25;5029931;28;20046;-76
2022/06/14 00:58:35;;;;;;;4.57;2.50;;;16.80;76.40;;;16.75;94.32;101088.34;5032713;28;20055;-77
2022/06/14 01:01:18;;;;;;;5.60;3.00;;;16.80;77.70;;;16.71;92.36;101093.78;5044289;28;20045;-76
2022/06/14 01:04:19;;;;;;;6.15;3.60;;;16.70;78.50;;;16.59;96.17;101087.16;5031080;28;20088;-77
2022/06/14 01:07:00;;;;;;;;;;;16.60;80.70;;;16.58;95.32;101090.72;5015287;28;20045;-77
2022/06/14 01:09:57;;;;;;;6.43;3.20;;;16.60;81.30;;;16.42;98.88;101090.44;5014826;28;19921;-77
2022/06/14 01:12:30;;;;;;;7.32;3.53;;;16.50;83.50;;;16.52;95.11;101084.78;5031811;28;20046;-76
2022/06/14 01:15:16;;;;;;;10.88;3.70;;;16.70;83.40;;;16.55;95.64;101087.31;5030498;28;20413;-77
2022/06/14 01:17:48;;;;;;;5.80;3.15;;;16.40;83.50;;;16.44;98.02;101088.56;5045547;28;20038;-77
2022/06/14 01:20:19;;;;;;;6.55;3.13;;;16.40;85.50;;;16.02;100.00;101089.22;5029626;28;20565;-76
2022/06/14 01:22:49;;;;;;;5.78;3.22;;;16.30;86.80;;;15.95;99.48;101088.59;5011026;28;20120;-77
2022/06/14 01:25:17;;;;;;;7.63;3.33;;;16.20;86.10;;;16.02;99.50;101083.94;5010093;28;20141;-77
2022/06/14 01:27:45;;;;;;;6.85;3.00;;;16.10;87.00;;;15.97;99.74;101083.19;5011866;28;20034;-77
2022/06/14 01:30:17;;;;;;;5.80;2.85;;;16.00;87.40;;;15.91;100.00;101088.75;5026051;28;20045;-78
2022/06/14 01:33:06;;;;;;;6.30;3.05;;;16.00;87.80;;;16.09;97.07;101090.72;5026143;28;20468;-77
2022/06/14 01:35:38;;;;;;;6.15;3.17;;;16.00;87.30;;;16.09;97.00;101096.03;5024316;28;20038;-78
2022/06/14 01:38:14;;;;;;;4.93;2.92;;;16.00;87.50;;;16.00;100.00;101083.97;5025896;28;20073;-76
2022/06/14 01:41:06;;;;;;;4.85;2.90;;;16.00;89.60;;;15.87;100.00;101086.16;5010576;28;20054;-76
2022/06/14 01:44:17;;;;;;;9.63;3.00;;;15.90;90.10;;;15.80;100.00;101084.63;5025175;28;20117;-77
2022/06/14 01:47:02;;;;;;;5.88;3.30;;;15.80;90.30;;;15.86;100.00;101083.56;5025816;28;20065;-77
2022/06/14 01:53:34;;;;;;;5.82;3.35;;;15.70;90.60;;;15.78;100.00;101086.47;5027052;28;20052;-77
2022/06/14 01:56:31;;;;;;;5.18;3.30;;;15.70;90.70;;;15.58;100.00;101081.84;5015442;28;20046;-77
2022/06/14 01:59:37;;;;;;;6.18;3.50;;;16.60;91.30;;;15.53;100.00;101089.97;4998440;28;20144;-77
2022/06/14 02:02:38;;;;;;;8.55;3.38;;;15.60;91.20;;;15.42;100.00;101092.09;5001335;28;20050;-77
2022/06/14 02:05:29;;;;;;;6.07;2.78;;;15.50;91.50;;;15.38;100.00;101095.78;4950832;28;20475;-75
2022/06/14 02:08:16;;;;;;;6.43;3.10;;;15.40;91.60;;;15.25;100.00;101100.59;5025157;28;20033;-75
2022/06/14 02:11:11;;;;;;;8.57;3.42;;;15.30;91.90;;;15.14;100.00;101091.22;5030215;28;20055;-77
2022/06/14 02:13:52;;;;;;;6.05;3.13;;;15.30;92.20;;;15.13;100.00;101089.44;5028464;28;20407;-77
2022/06/14 02:16:32;;;;;;;7.72;3.25;;;15.40;92.20;;;14.95;100.00;101087.38;5028921;28;20037;-77
2022/06/14 02:19:20;;;;;;;7.10;2.92;;;14.40;92.20;;;14.92;100.00;101096.31;5027945;28;20045;-77
2022/06/14 02:21:56;;;;;;;4.55;3.13;;;15.00;92.10;;;14.76;100.00;101097.69;5030043;28;20077;-77
2022/06/14 02:24:35;;;;;;;6.05;4.00;;;14.90;92.30;;;14.77;100.00;101096.78;5027172;28;20073;-77
2022/06/14 02:27:31;;;;;;;4.20;3.22;;;14.90;92.50;;;14.90;100.00;101098.13;5027992;28;20063;-76
2022/06/14 02:30:12;;;;;;;7.75;4.20;;;14.80;92.40;;;14.87;100.00;101096.44;5041999;28;20053;-76
2022/06/14 02:32:58;;;;;;;5.03;3.45;;;14.90;92.70;;;14.92;100.00;101100.72;5028046;28;20059;-77
2022/06/14 02:35:34;;;;;;;5.13;3.40;;;14.90;92.50;;;14.85;100.00;101100.94;5029930;28;20052;-77
2022/06/14 02:38:20;;;;;;;6.47;3.35;;;14.90;92.50;;;14.65;100.00;101093.53;5045171;28;20053;-77
2022/06/14 02:40:52;;;;;;;6.57;3.78;;;14.80;92.90;;;14.71;100.00;101090.72;5027505;28;20037;-77
2022/06/14 02:43:43;;;;;;;6.43;3.55;;;14.80;92.90;;;14.72;100.00;101092.47;5028399;28;20672;-77
2022/06/14 02:46:28;;;;;;;4.65;4.10;;;14.70;93.20;;;14.56;100.00;101091.16;5013414;28;20049;-76
2022/06/14 02:49:10;;;;;;;6.55;4.47;;;14.70;93.50;;;14.37;100.00;101096.97;5029297;28;20120;-77
2022/06/14 02:51:59;;;;;;;9.85;4.65;;;14.60;93.40;;;14.44;100.00;101095.03;5028371;28;20042;-76
2022/06/14 02:54:40;;;;;;;4.55;3.63;;;14.50;93.40;;;14.53;100.00;101096.53;5028235;28;20037;-76
2022/06/14 02:57:18;;;;;;;5.82;4.00;;;14.50;93.90;;;14.32;100.00;101090.97;5013387;28;20046;-76
2022/06/14 02:59:59;;;;;;;5.45;3.13;;;14.40;94.10;;;14.48;100.00;101093.16;5010949;28;20465;-76
2022/06/14 03:02:48;;;;;;;6.25;4.03;;;14.50;93.70;;;14.29;100.00;101104.28;5028217;28;20052;-77
2022/06/14 03:05:48;;;;;;;8.43;4.00;;;14.40;94.10;;;14.30;100.00;101096.28;5028656;28;20049;-75
2022/06/14 03:08:33;;;;;;;7.05;3.60;;;14.40;94.20;;;14.30;100.00;101085.69;5012876;28;20617;-76
2022/06/14 03:11:25;;;;;;;5.50;3.50;;;14.30;94.40;;;14.22;100.00;101089.47;5027179;28;20049;-77
2022/06/14 03:14:10;;;;;;;4.90;3.90;;;14.30;94.60;;;14.07;100.00;101082.84;5027831;28;20052;-77
2022/06/14 03:16:47;;;;;;;6.75;3.80;;;14.20;95.00;;;13.90;100.00;101100.03;5009231;28;20494;-77
2022/06/14 03:19:18;;;;;;;7.88;4.22;;;14.10;94.90;;;13.95;100.00;101095.47;5027270;28;20046;-77
2022/06/14 03:22:21;;;;;;;6.10;3.55;;;14.10;95.10;;;14.08;100.00;101087.22;5028731;28;20057;-77
2022/06/14 03:25:27;;;;;;;5.05;3.47;;;14.10;95.00;;;13.98;100.00;101092.75;5027234;28;20045;-75
2022/06/14 03:28:09;;;;;;;7.20;3.65;;;14.00;95.00;;;13.88;100.00;101101.81;5027442;28;20037;-77
2022/06/14 03:31:02;;;;;;;6.30;3.80;;;14.00;95.10;;;13.83;100.00;101093.13;5026683;28;20046;-77
2022/06/14 03:33:38;;;;;;;5.38;3.83;;;13.90;95.40;;;13.94;100.00;101095.50;5026953;28;20041;-77
2022/06/14 03:36:07;;;;;;;5.65;3.63;;;13.90;95.20;;;13.92;100.00;101099.97;5044057;28;20072;-77
2022/06/14 03:38:55;;;;;;;7.03;3.75;;;13.90;95.20;;;13.84;100.00;101103.69;5027192;28;20388;-76
2022/06/14 03:41:28;;;;;;;11.45;3.88;;;13.90;95.40;;;13.91;100.00;101107.06;5028208;28;20087;-76
2022/06/14 03:43:58;;;;;;;4.43;4.00;;;13.90;95.60;;;13.91;100.00;101093.81;5042500;28;20053;-77
2022/06/14 03:46:30;;;;;;;7.68;4.95;;;13.90;95.30;;;13.85;100.00;101099.25;5042808;28;20127;-77
2022/06/14 03:49:14;;;;;;;7.68;3.83;;;13.90;95.70;;;13.67;100.00;101097.97;5042055;28;20501;-75
2022/06/14 03:52:24;;;;;;;5.72;3.50;;;14.00;95.70;;;13.85;100.00;101102.78;5026631;28;20052;-77
2022/06/14 03:55:47;;;;;;;6.72;4.07;;;13.80;95.30;;;13.85;100.00;101107.19;5033561;28;20053;-77
2022/06/14 03:58:26;;;;;;;6.45;4.00;;;13.90;95.60;;;13.81;100.00;101113.47;5026238;28;20103;-77
2022/06/14 04:01:08;;;;;;;7.57;4.70;;;13.90;95.40;;;13.66;100.00;101107.66;5025854;28;20049;-77
2022/06/14 04:04:14;;;;;;;6.57;4.13;;;14.10;95.70;;;13.72;100.00;101114.59;5026684;28;20073;-77
2022/06/14 04:06:50;;;;;;;6.65;3.85;;;13.80;95.70;;;13.67;100.00;101108.56;5027078;28;20048;-77
2022/06/14 04:10:07;;;;;;;6.85;3.83;;;13.70;95.70;;;13.70;100.00;101105.81;5026371;28;20033;-77
2022/06/14 04:12:56;;;;;;;8.40;3.90;;;13.70;95.70;;;13.66;100.00;101106.78;5008247;28;20041;-77
2022/06/14 04:15:55;;;;;;;8.27;4.50;;;13.70;96.00;;;13.66;100.00;101106.78;5021869;28;20116;-76
2022/06/14 04:18:46;;;;;;;6.70;3.78;;;13.70;96.10;;;13.67;100.00;101109.41;5022011;28;20049;-77
2022/06/14 04:21:51;;;;;;;5.85;4.75;;;13.70;96.10;;;13.82;100.00;101109.91;5028132;28;20538;-75
2022/06/14 04:24:44;;;;;;;5.43;4.30;;;13.70;96.00;;;13.81;100.00;101106.41;5040984;28;20037;-77
2022/06/14 04:27:28;;;;;;;9.90;4.50;;;13.80;95.90;;;13.86;100.00;101109.81;5028122;28;20061;-76
2022/06/14 04:30:40;;;;;;;7.25;3.83;;;13.80;96.00;;;14.03;100.00;101101.41;5041858;28;20041;-76
2022/06/14 04:33:15;;;;;;;8.77;4.47;;;13.90;95.90;;;14.13;100.00;101098.53;5027450;28;20401;-76
2022/06/14 04:35:51;;;;;;;9.75;5.03;;;14.00;96.20;;;14.16;100.00;101103.72;5042565;28;20045;-76
2022/06/14 04:39:10;;;;;;;11.13;5.57;;;14.00;96.00;;;14.28;100.00;101099.88;5025826;28;20057;-76
2022/06/14 04:42:17;;;;;;;10.15;4.00;;;14.10;95.70;;;14.30;100.00;101095.44;5040957;28;20052;-76
2022/06/14 04:44:58;;;;;;;7.47;4.60;;;14.20;95.50;;;14.34;100.00;101091.78;5025172;28;20049;-76
2022/06/14 04:47:56;;;;;;;5.57;4.53;;;14.30;95.50;;;14.40;100.00;101094.25;5006205;28;20060;-77
2022/06/14 04:50:38;;;;;;;7.18;5.00;;;14.30;95.40;;;14.38;100.00;101089.91;5006373;28;20053;-78
2022/06/14 04:53:23;;;;;;;6.38;4.57;;;14.30;95.60;;;14.49;100.00;101087.81;5041408;28;20045;-77
2022/06/14 04:56:02;;;;;;;11.73;4.85;;;14.30;95.60;;;14.58;100.00;101087.56;5041799;28;20046;-76
2022/06/14 04:58:44;;;;;;;8.65;4.90;;;14.40;95.40;;;14.61;100.00;101091.91;5025824;28;20046;-76
2022/06/14 05:01:24;;;;;;;6.57;4.70;;;14.50;95.50;;;14.72;100.00;101092.47;5040990;28;20501;-77
2022/06/14 05:04:04;;;;;;;10.95;4.53;;;14.50;95.40;;;14.81;100.00;101085.16;5041550;28;20053;-76
2022/06/14 05:06:50;;;;;;;7.13;4.32;;;14.60;95.30;;;14.89;100.00;101085.78;5025131;28;20276;-76
2022/06/14 05:09:31;;;;;;;11.50;4.20;;;14.70;95.10;;;14.99;100.00;101091.69;5040249;28;20045;-77
2022/06/14 05:12:19;;;;;;;;;;;14.80;95.10;;;15.12;100.00;101089.53;5006265;28;20049;-77
2022/06/14 05:15:13;;;;;;;9.65;4.32;;;14.80;94.30;;;15.17;100.00;101084.94;5026782;28;19947;-76
2022/06/14 05:17:49;;;;;;;9.18;5.53;;;14.90;95.00;;;15.26;100.00;101083.75;5025639;28;20053;-77
2022/06/14 05:20:37;;;;;;;6.47;4.32;;;15.00;94.50;;;15.42;100.00;101087.66;5026495;28;20051;-77
2022/06/14 05:23:29;;;;;;;6.93;3.50;;;15.10;94.30;;;15.41;100.00;101093.03;5025706;28;20061;-77
2022/06/14 05:26:19;;;;;;;7.63;3.55;;;15.20;94.50;;;15.44;100.00;101091.13;5027547;28;20063;-76
2022/06/14 05:29:18;;;;;;;8.57;4.05;;;15.20;94.30;;;15.46;100.00;101085.78;5029969;28;20045;-76
2022/06/14 05:32:26;;;;;;;6.68;3.60;;;15.30;94.20;;;15.60;100.00;101082.66;5038850;28;20046;-76
2022/06/14 05:35:26;;;;;;;6.70;3.47;;;15.30;94.10;;;15.69;100.00;101084.16;5023613;28;20071;-76
2022/06/14 05:38:08;;;;;;;8.07;3.65;;;15.40;94.00;;;15.71;100.00;101075.19;5033349;28;20060;-77
2022/06/14 05:41:07;;;;;;;4.95;3.45;;;15.50;93.70;;;15.84;100.00;101085.41;5016788;28;20033;-77
2022/06/14 05:43:48;;;;;;;6.90;4.07;;;15.60;93.70;;;15.86;100.00;101080.91;5030297;28;20049;-77
2022/06/14 05:46:38;;;;;;;7.45;3.67;;;15.60;93.40;;;15.93;100.00;101077.16;5029432;28;20046;-77
2022/06/14 05:49:15;;;;;;;7.47;3.70;;;15.70;92.90;;;16.05;100.00;101078.50;5013520;28;20045;-77
2022/06/14 05:52:00;;;;;;;6.65;3.67;;;15.70;92.90;;;16.11;100.00;101080.94;5028795;28;20045;-77
2022/06/14 05:54:30;;;;;;;6.82;3.40;;;15.80;93.00;;;16.16;100.00;101084.31;4997723;28;20938;-77
2022/06/14 05:57:14;;;;;;;5.50;3.53;;;15.90;92.90;;;16.22;100.00;101071.72;5028921;28;20045;-77
2022/06/14 06:00:03;;;;;;;6.50;3.33;;;15.90;92.40;;;16.29;100.00;101074.09;5012303;28;20037;-76
2022/06/14 06:02:44;;;;;;;4.97;3.03;;;16.00;92.50;;;16.38;99.83;101074.66;5043458;28;20053;-76
2022/06/14 06:05:43;;;;;;;5.20;3.55;;;16.10;92.20;;;16.44;98.80;101080.59;5028198;28;20501;-77
2022/06/14 06:08:38;;;;;;;4.20;2.90;;;16.20;92.20;;;16.55;100.00;101079.34;5028585;28;20041;-76
2022/06/14 06:11:19;;;;;;;6.13;3.38;;;16.20;92.20;;;16.64;100.00;101080.78;5027933;28;20042;-78
2022/06/14 06:13:59;;;;;;;6.00;2.92;;;16.30;92.60;;;16.68;100.00;101079.75;5013089;28;20593;-76
2022/06/14 06:19:44;;;;;;;5.00;2.67;;;16.50;92.10;;;16.79;96.60;101084.66;5028343;28;20447;-77
2022/06/14 06:22:43;;;;;;;6.70;3.55;;;16.50;91.70;;;16.85;99.09;101089.72;5055138;28;20144;-76
2022/06/14 06:25:37;;;;;;;5.63;3.00;;;16.50;91.90;;;16.93;96.83;101077.00;5052701;28;20080;-76
2022/06/14 06:28:35;;;;;;;9.30;3.22;;;16.60;91.70;;;17.05;95.48;101086.31;5043734;28;20049;-76
2022/06/14 06:31:13;;;;;;;5.18;3.05;;;16.70;91.60;;;17.15;96.35;101081.50;5029224;28;20037;-76
2022/06/14 06:33:46;;;;;;;4.63;2.70;;;16.80;91.60;;;17.16;91.89;101080.56;5044196;28;20080;-76
2022/06/14 06:36:28;;;;;;;7.43;3.25;;;16.80;91.10;;;17.29;93.19;101088.91;5027233;28;20484;-77
2022/06/14 06:39:36;;;;;;;6.03;2.90;;;16.90;91.40;;;17.42;94.32;101086.63;5029689;28;20069;-76
2022/06/14 06:42:21;;;;;;;6.50;3.05;;;17.00;91.30;;;17.47;91.56;101087.28;5015473;28;20422;-76
2022/06/14 06:44:55;;;;;;;7.40;3.67;;;17.10;91.20;;;17.53;90.31;101081.72;5028256;28;20049;-77
2022/06/14 06:47:52;;;;;;;6.05;2.80;;;17.10;90.90;;;17.63;89.92;101071.53;5028222;28;20809;-77
2022/06/14 06:50:33;;;;;;;5.75;3.25;;;17.30;90.90;;;17.68;90.96;101079.34;5027924;28;20065;-76
2022/06/14 06:53:19;;;;;;;3.72;2.55;;;17.30;90.90;;;17.74;89.13;101083.53;5027833;28;20048;-76
2022/06/14 06:55:58;;;;;;;6.55;2.80;;;17.40;90.70;;;17.80;89.22;101080.63;5027433;28;20067;-76
2022/06/14 06:58:35;;;;;;;6.00;3.28;;;17.40;90.70;;;17.80;87.04;101080.63;5027610;28;20136;-76
2022/06/14 07:01:19;;;;;;;5.13;2.80;;;17.40;90.40;;;17.86;88.19;101072.38;5027615;28;20134;-76
2022/06/14 07:07:36;;;;;;;8.40;3.42;;;17.60;90.50;;;18.10;84.39;101081.09;5025550;28;20128;-76
2022/06/14 07:10:16;;;;;;;7.15;2.97;;;17.70;90.20;;;18.19;84.40;101069.16;5028322;28;20507;-76
2022/06/14 07:13:03;;;;;;;7.63;3.47;;;17.70;90.20;;;18.27;82.64;101068.81;5028689;28;20045;-75
2022/06/14 07:15:50;;;;;;;7.88;2.85;;;17.80;90.20;;;18.32;83.24;101065.97;5027143;28;20597;-75
2022/06/14 07:18:32;;;;;;;6.40;2.70;;;17.90;90.00;;;18.44;85.22;101070.72;5027839;28;20167;-74
2022/06/14 07:21:11;;;;;;;5.68;3.15;;;18.00;90.30;;;18.52;83.26;101076.56;5010450;28;20060;-75
2022/06/14 07:24:08;;;;;;;4.82;2.50;;;18.10;90.10;;;18.61;79.88;101066.41;5028013;28;20069;-75
2022/06/14 07:26:59;;;;;;;9.63;3.40;;;18.10;89.50;;;18.67;81.05;101064.34;5028788;28;20072;-75
2022/06/14 07:30:11;;;;;;;5.22;2.63;;;18.30;89.60;;;18.77;78.22;101063.88;5027297;28;20104;-74
2022/06/14 07:32:57;;;;;;;8.25;4.18;;;18.30;88.90;;;18.90;79.64;101062.34;5028760;28;20422;-74
2022/06/14 07:35:54;;;;;;;10.23;3.28;;;18.40;89.20;;;18.99;78.18;101061.97;5027328;28;20052;-75
2022/06/14 07:38:39;;;;;;;5.97;3.13;;;18.50;89.20;;;19.08;77.18;101065.09;5017892;28;20060;-75
2022/06/14 07:41:39;;;;;;;5.75;2.90;;;18.60;88.40;;;19.18;75.71;101058.38;5023213;28;20052;-75
2022/06/14 07:44:06;;;;;;;4.83;2.93;;;18.70;88.40;;;19.24;76.30;101060.75;5013411;28;20050;-77
2022/06/14 07:46:47;;;;;;;8.68;2.95;;;18.80;88.30;;;19.30;77.03;101053.38;5026126;28;20184;-77
2022/06/14 07:49:47;;;;;;;5.88;2.83;;;18.60;91.10;;;19.55;80.44;101053.84;5025374;28;20041;-76
2022/06/14 07:52:28;;;;;;;5.45;3.10;;;19.20;89.00;;;19.64;75.58;101049.84;5027656;28;20045;-78
2022/06/14 07:55:24;;;;;;;6.22;3.78;;;19.20;88.00;;;19.73;73.10;101051.19;5027962;28;20088;-79
2022/06/14 07:57:59;;;;;;;7.88;3.38;;;19.10;93.20;;;19.83;72.50;101041.75;5027088;28;20076;-78
2022/06/14 08:03:30;;;;;;;7.15;3.33;;;19.50;86.70;;;20.05;66.57;101040.66;5040874;28;20045;-79
2022/06/14 08:06:01;;;;;;;8.88;3.00;;;19.60;85.60;;;20.09;69.42;101041.34;5026885;28;20049;-77
2022/06/14 08:08:34;;;;;;;6.20;2.90;;;19.90;88.70;;;20.18;66.44;101038.19;5043608;28;20537;-77
2022/06/14 08:11:19;;;;;;;5.97;3.00;;;19.60;86.70;;;20.31;65.97;101043.72;5025925;28;20064;-78
2022/06/14 08:14:04;;;;;;;7.38;2.97;;;19.60;84.30;;;20.31;62.25;101032.19;4991083;28;20040;-77
2022/06/14 08:16:31;;;;;;;7.25;2.90;;;20.10;91.10;;;20.31;62.80;101027.69;5022657;28;20077;-78
2022/06/14 08:19:14;;;;;;;5.85;3.00;;;20.00;83.20;;;20.53;63.10;101031.88;5006880;28;20132;-77
2022/06/14 08:21:52;;;;;;;3.38;2.40;;;20.20;89.50;;;20.69;60.92;101030.06;5015176;28;20045;-77
2022/06/14 08:24:52;;;;;;;8.00;3.00;;;20.20;90.10;;;20.70;58.92;101028.25;5031683;28;20132;-78
2022/06/14 08:27:51;;;;;;;5.55;3.47;;;20.40;81.00;;;20.81;58.36;101030.34;5028741;28;20124;-78
2022/06/14 08:30:47;;;;;;;6.20;3.20;;;20.40;79.80;;;20.88;54.89;101025.50;5023175;28;20107;-78
2022/06/14 08:34:03;;;;;;;7.32;3.00;;;20.50;78.50;;;20.95;51.46;101022.38;4995327;28;20049;-78
2022/06/14 08:37:01;;;;;;;9.50;3.20;;;20.60;76.60;;;21.12;50.11;101028.56;5043185;28;20049;-79
2022/06/14 08:39:39;;;;;;;7.75;2.70;;;19.30;75.50;;;21.15;46.96;101028.41;5029320;28;20568;-77
2022/06/14 08:42:33;;;;;;;4.55;2.22;;;;;;;21.20;46.06;101022.78;5004135;28;20048;-78
2022/06/14 08:45:04;;;;;;;6.30;2.88;;;;;;;21.25;45.54;101024.22;5043164;28;20568;-78
2022/06/14 08:48:04;;;;;;;4.13;2.58;;;;;;;21.38;48.59;101016.31;5029045;28;20087;-78
2022/06/14 08:51:10;;;;;;;6.43;2.55;;;21.00;72.30;;;21.56;45.94;101026.03;4980143;28;20140;-78
2022/06/14 08:53:59;;;;;;;4.50;2.53;;;21.00;76.40;;;21.24;43.59;101019.84;5027311;28;20053;-78
2022/06/14 08:57:17;;;;;;;7.17;3.13;;;21.10;69.50;;;21.49;45.44;101007.69;4992110;28;20149;-78
2022/06/14 09:00:28;;;;;;;6.03;2.50;;;21.10;71.10;;;21.75;46.38;101015.13;5024254;28;20049;-79
2022/06/14 09:03:20;;;;;;;7.35;2.78;;;21.20;72.10;;;21.92;47.02;101017.63;4996510;28;20498;-79
2022/06/14 09:06:20;;;;;;;6.32;2.55;;;21.30;72.80;;;22.08;47.94;101003.28;4995369;28;20056;-79
2022/06/14 09:09:30;;;;;;;6.93;2.88;;;21.40;73.30;;;22.09;46.75;101002.31;5011990;28;20046;-78
2022/06/14 09:12:42;;;;;;;7.50;2.60;;;21.50;72.20;;;22.04;45.00;100999.06;5017921;28;20108;-77
2022/06/14 09:16:02;;;;;;;4.25;2.70;;;21.60;70.70;;;22.20;45.71;100986.44;5038197;28;20284;-78
2022/06/14 09:18:56;;;;;;;5.53;3.25;;;21.60;71.00;;;22.35;46.07;100987.25;5034817;28;20038;-78
2022/06/14 09:21:54;;;;;;;9.50;3.38;;;21.70;71.30;;;22.55;45.00;100995.84;5029858;28;20517;-81
2022/06/14 09:25:01;;;;;;;6.28;2.80;;;21.90;70.60;;;22.68;44.11;100995.94;5031053;28;20041;-80
2022/06/14 09:27:59;;;;;;;7.78;3.00;;;22.00;70.50;;;22.76;43.56;101000.81;5030285;28;20045;-79
2022/06/14 09:30:29;;;;;;;6.35;3.33;;;22.20;69.00;;;22.66;42.34;100984.44;5034377;28;20417;-79
2022/06/14 09:33:26;;;;;;;;;;;22.30;67.00;;;22.37;41.55;100981.81;5035235;28;20068;-78
2022/06/14 09:36:28;;;;;;;8.60;3.40;;;22.20;65.50;;;22.52;42.19;100986.22;5031321;28;19936;-77
2022/06/14 09:39:32;;;;;;;7.38;3.30;;;22.20;66.20;;;22.74;43.35;100984.78;5014869;28;20049;-76
2022/06/14 09:42:21;;;;;;;8.15;2.90;;;22.20;67.40;;;22.90;44.94;100976.59;5030389;28;20716;-79
2022/06/14 09:45:20;;;;;;;6.15;2.78;;;22.30;69.00;;;22.99;44.46;100974.25;5028553;28;20052;-79
2022/06/14 09:48:12;;;;;;;2.88;2.28;;;22.40;68.50;;;23.31;44.14;100974.81;5029859;28;20766;-78
2022/06/14 09:51:04;;;;;;;5.00;2.85;;;22.60;68.70;;;23.40;43.34;100980.47;5029245;28;20699;-78
2022/06/14 09:53:50;;;;;;;6.05;2.72;;;22.70;68.50;;;23.48;42.44;100970.09;5028531;28;20168;-76
2022/06/14 09:57:05;;;;;;;6.45;3.28;;;22.80;67.20;;;23.68;40.87;100965.16;5025404;28;20136;-76
2022/06/14 10:00:17;;;;;;;6.15;2.67;;;23.00;65.40;;;23.74;40.87;100968.25;5008102;28;20616;-77
2022/06/14 10:03:31;;;;;;;10.02;3.33;;;23.10;65.00;;;23.83;40.53;100960.53;5007821;28;20078;-77
2022/06/14 10:06:28;;;;;;;11.00;3.30;;;23.20;65.00;;;23.92;39.16;100963.44;5009949;28;20462;-75
2022/06/14 10:09:36;;;;;;;8.52;3.90;;;23.30;63.20;;;23.95;39.42;100959.63;5008074;28;20056;-75
2022/06/14 10:12:44;;;;;;;6.10;2.60;;;23.40;63.10;;;23.99;40.64;100947.72;5019040;28;20080;-76
2022/06/14 10:15:32;;;;;;;8.73;3.35;;;23.40;64.20;;;24.04;39.68;100945.59;5027395;28;20069;-76
2022/06/14 10:18:34;;;;;;;6.97;2.63;;;23.50;63.10;;;23.83;37.87;100941.72;5029217;28;20509;-77
2022/06/14 10:21:36;;;;;;;7.53;3.35;;;23.50;60.70;;;23.85;38.54;100932.56;5028180;28;20169;-76
2022/06/14 10:24:15;;;;;;;4.90;2.90;;;23.50;60.30;;;23.91;38.85;100940.22;5028992;28;20144;-75
2022/06/14 10:29:56;;;;;;;5.05;2.65;;;23.50;60.00;;;24.14;38.38;100937.72;5029606;28;20129;-75
2022/06/14 10:33:11;;;;;;;4.53;2.70;;;23.50;60.70;;;24.39;38.09;100935.06;5029438;28;20045;-74
2022/06/14 10:36:07;;;;;;;7.15;3.15;;;22.90;60.40;;;24.33;37.55;100934.53;5042162;28;20053;-76
2022/06/14 10:38:52;;;;;;;6.32;2.90;;;23.80;59.60;;;24.59;37.14;100941.66;5029316;28;20080;-75
2022/06/14 10:41:56;;;;;;;8.00;3.42;;;23.90;59.30;;;24.64;35.74;100929.56;5029447;28;20055;-75
2022/06/14 10:45:02;;;;;;;4.35;2.75;;;24.00;58.40;;;24.62;35.74;100922.59;5053800;28;20049;-76
2022/06/14 10:47:51;;;;;;;6.45;2.78;;;24.10;57.70;;;24.81;35.75;100924.78;5020553;28;20060;-76
2022/06/14 10:51:18;;;;;;;5.25;2.78;;;24.10;57.60;;;24.73;34.76;100909.19;5029842;28;20046;-75
2022/06/14 10:53:56;;;;;;;10.30;3.30;;;24.20;56.30;;;24.72;35.19;100912.84;4971768;28;20061;-74
2022/06/14 10:56:29;;;;;;;3.63;2.08;;;24.20;56.20;;;24.92;35.97;100902.44;5028189;28;20128;-74
2022/06/14 10:59:05;;;;;;;4.20;2.50;;;24.20;57.30;;;25.14;35.65;100908.88;5029250;28;20049;-74
2022/06/14 11:02:14;;;;;;;4.90;2.95;;;24.40;57.20;;;25.28;35.21;100905.09;5028461;28;20057;-74
2022/06/14 11:05:19;;;;;;;5.95;2.90;;;24.50;56.70;;;25.58;35.78;100898.31;5024356;28;20045;-74
2022/06/14 11:07:58;;;;;;;4.85;2.85;;;24.70;57.40;;;25.87;34.64;100897.81;5012635;28;20497;-73
2022/06/14 11:10:46;;;;;;;7.20;2.42;;;25.00;56.30;;;25.95;34.07;100892.63;5008253;28;20042;-75
2022/06/14 11:13:45;;;;;;;5.95;2.67;;;25.20;55.90;;;26.21;30.88;100891.53;5008781;28;20128;-75
2022/06/14 11:16:22;;;;;;;5.80;2.10;;;25.30;53.60;;;26.18;29.92;100892.66;5010526;28;20041;-75
2022/06/14 11:19:35;;;;;;;6.13;2.10;;;25.50;51.00;;;26.24;30.07;100886.75;5023943;28;20489;-75
2022/06/14 11:22:39;;;;;;;5.93;2.25;;;25.60;50.70;;;26.35;29.01;100882.31;5026481;28;20044;-73
2022/06/14 11:25:44;;;;;;;6.50;2.45;;;25.70;49.70;;;26.50;30.50;100889.13;5028741;28;20053;-74
2022/06/14 11:28:16;;;;;;;5.05;2.50;;;25.80;50.80;;;26.56;31.41;100883.19;5032035;28;20029;-78
2022/06/14 11:31:03;;;;;;;6.63;2.30;;;25.90;51.60;;;26.38;31.56;100873.94;5029194;28;20047;-75
2022/06/14 11:33:58;;;;;;;4.72;2.35;;;26.00;51.70;;;26.49;31.38;100868.53;5025079;28;20037;-76
2022/06/14 11:36:46;;;;;;;3.50;2.20;;;25.90;51.10;;;26.54;31.43;100866.28;5026966;28;20034;-75
2022/06/14 11:39:23;;;;;;;9.55;2.92;;;26.00;51.50;;;26.31;30.88;100852.03;5024805;28;20053;-74
2022/06/14 11:41:51;;;;;;;5.03;2.83;;;25.90;50.40;;;26.31;31.87;100858.28;5026760;28;20469;-75
2022/06/14 11:44:21;;;;;;;5.35;2.55;;;25.90;51.30;;;26.62;33.05;100854.84;5023178;28;20046;-78
2022/06/14 11:47:05;;;;;;;;;;;26.00;53.10;;;26.67;33.15;100849.91;5031405;28;20071;-80
2022/06/14 11:49:43;;;;;;;6.32;3.15;;;26.00;53.20;;;26.71;32.81;100856.78;5030940;28;20000;-79
2022/06/14 11:53:09;;;;;;;3.90;2.53;;;26.10;52.50;;;27.20;29.58;100842.75;5029628;28;20049;-79
2022/06/14 11:56:02;;;;;;;3.10;2.10;;;26.70;49.90;;;27.06;32.10;100851.19;5055263;28;20057;-76